This is the latest recevied weather packets stored in our database for station/object N4QD-13. If no packets are shown the sender has not sent any weather packets the latest 1 day(s).
| Time | Temp. | Humidity | Pressure | Rain* | Wind** | Luminosity | Snow |
|---|---|---|---|---|---|---|---|
| 1778099180 | 22.22° C | 77% | 1009.2 hPa | 0 mm | - | 197 W/m² | - |
| 1778098876 | 22.78° C | 77% | 1008.9 hPa | 0 mm | - | 193 W/m² | - |
| 1778097966 | 22.22° C | 78% | 1009.1 hPa | 0 mm | - | 219 W/m² | - |
| 1778097663 | 22.22° C | 78% | 1009 hPa | 0 mm | - | 230 W/m² | - |
| 1778096754 | 22.22° C | 78% | 1009.4 hPa | 0 mm | - | 223 W/m² | - |
| 1778094934 | 22.22° C | 79% | 1009 hPa | 0 mm | - | 480 W/m² | - |
| 1778093418 | 20.56° C | 82% | 1009.8 hPa | 0 mm | - | 178 W/m² | - |
| 1778090387 | 21.11° C | 80% | 1009.8 hPa | 0 mm | - | 53 W/m² | - |
| 1778090084 | 21.11° C | 80% | 1009.9 hPa | 0 mm | - | 82 W/m² | - |
| 1778087963 | 21.11° C | 79% | 1009.9 hPa | 0 mm | - | 285 W/m² | - |
| 1778087054 | 20.56° C | 80% | 1010.3 hPa | 0 mm | - | 301 W/m² | - |
| 1778086451 | 21.11° C | 80% | 1010.4 hPa | 0 mm | - | 306 W/m² | - |
| 1778084024 | 20° C | 81% | 1010.7 hPa | 0 mm | - | 387 W/m² | - |
| 1778083418 | 19.44° C | 82% | 1010.6 hPa | 0 mm | - | 183 W/m² | - |
| 1778081079 | 18.89° C | 87% | 1011 hPa | 0 mm | - | 436 W/m² | - |
| 1778079868 | 17.78° C | 90% | 1010.9 hPa | 0 mm | - | 177 W/m² | - |
| 1778078959 | 17.78° C | 90% | 1011 hPa | 0 mm | - | 184 W/m² | - |
| 1778078655 | 17.78° C | 91% | 1010.9 hPa | 0 mm | - | 203 W/m² | - |
| 1778076842 | 16.67° C | 99% | 1011.1 hPa | 0 mm | - | 170 W/m² | - |
| 1778075023 | 15.56° C | 99% | 1011.2 hPa | 0 mm | - | 111 W/m² | - |
| 1778074417 | 15.56° C | 99% | 1011.3 hPa | 0 mm | - | 81 W/m² | - |
| 1778073811 | 15.56° C | 99% | 1011.2 hPa | 1.27 mm | - | 52 W/m² | - |
| 1778073205 | 15.56° C | 99% | 1011.2 hPa | 1.78 mm | - | 39 W/m² | - |
| 1778071693 | 15.56° C | 95% | 1010.9 hPa | 1.27 mm | - | 64 W/m² | - |
| 1778071389 | 15.56° C | 94% | 1011 hPa | 1.27 mm | - | 63 W/m² | - |
* Rain latest hour (hover to see other rain measurements)
** Current wind speed in m/s (hover to see current wind gust speed)